sensor_id;sensor_type;location;lat;lon;timestamp;temperature;humidity
13436;DHT22;6790;49.520;8.504;2024-01-07T00:01:35;4.40;99.90
13436;DHT22;6790;49.520;8.504;2024-01-07T00:04:01;4.70;99.90
13436;DHT22;6790;49.520;8.504;2024-01-07T00:06:27;4.50;99.90
13436;DHT22;6790;49.520;8.504;2024-01-07T00:08:52;4.60;99.90
13436;DHT22;6790;49.520;8.504;2024-01-07T00:11:18;4.70;99.90
13436;DHT22;6790;49.520;8.504;2024-01-07T00:13:45;4.40;99.90
13436;DHT22;6790;49.520;8.504;2024-01-07T00:16:11;4.40;99.90
13436;DHT22;6790;49.520;8.504;2024-01-07T00:18:36;4.40;99.90
13436;DHT22;6790;49.520;8.504;2024-01-07T00:21:02;4.50;99.90
13436;DHT22;6790;49.520;8.504;2024-01-07T00:23:29;4.40;99.90
13436;DHT22;6790;49.520;8.504;2024-01-07T00:25:55;4.50;99.90
13436;DHT22;6790;49.520;8.504;2024-01-07T00:28:21;4.40;99.90
13436;DHT22;6790;49.520;8.504;2024-01-07T00:30:46;4.60;99.90
13436;DHT22;6790;49.520;8.504;2024-01-07T00:33:12;4.40;99.90
13436;DHT22;6790;49.520;8.504;2024-01-07T00:35:37;4.40;99.90
13436;DHT22;6790;49.520;8.504;2024-01-07T00:38:03;4.60;99.90
13436;DHT22;6790;49.520;8.504;2024-01-07T00:40:29;4.50;99.90
13436;DHT22;6790;49.520;8.504;2024-01-07T00:42:55;4.50;99.90
13436;DHT22;6790;49.520;8.504;2024-01-07T00:45:20;4.50;99.90
13436;DHT22;6790;49.520;8.504;2024-01-07T00:47:47;4.60;99.90
13436;DHT22;6790;49.520;8.504;2024-01-07T00:50:12;4.40;99.90
13436;DHT22;6790;49.520;8.504;2024-01-07T00:52:38;4.50;99.90
13436;DHT22;6790;49.520;8.504;2024-01-07T00:55:05;4.50;99.90
13436;DHT22;6790;49.520;8.504;2024-01-07T00:57:32;4.40;99.90
13436;DHT22;6790;49.520;8.504;2024-01-07T01:00:04;4.60;99.90
13436;DHT22;6790;49.520;8.504;2024-01-07T01:02:31;4.60;99.90
13436;DHT22;6790;49.520;8.504;2024-01-07T01:04:56;4.50;99.90
13436;DHT22;6790;49.520;8.504;2024-01-07T01:07:22;4.40;99.90
13436;DHT22;6790;49.520;8.504;2024-01-07T01:09:48;4.40;99.90
13436;DHT22;6790;49.520;8.504;2024-01-07T01:12:13;4.50;99.90
13436;DHT22;6790;49.520;8.504;2024-01-07T01:14:40;4.50;99.90
13436;DHT22;6790;49.520;8.504;2024-01-07T01:17:06;4.50;99.90
13436;DHT22;6790;49.520;8.504;2024-01-07T01:19:32;4.50;99.90
13436;DHT22;6790;49.520;8.504;2024-01-07T01:21:57;4.40;99.90
13436;DHT22;6790;49.520;8.504;2024-01-07T01:24:23;4.50;99.90
13436;DHT22;6790;49.520;8.504;2024-01-07T01:26:49;4.50;99.90
13436;DHT22;6790;49.520;8.504;2024-01-07T01:29:14;4.40;99.90
13436;DHT22;6790;49.520;8.504;2024-01-07T01:31:40;4.30;99.90
13436;DHT22;6790;49.520;8.504;2024-01-07T01:34:06;4.40;99.90
13436;DHT22;6790;49.520;8.504;2024-01-07T01:36:31;4.50;99.90
13436;DHT22;6790;49.520;8.504;2024-01-07T01:38:57;4.30;99.90
13436;DHT22;6790;49.520;8.504;2024-01-07T01:41:23;4.40;99.90
13436;DHT22;6790;49.520;8.504;2024-01-07T01:43:49;4.40;99.90
13436;DHT22;6790;49.520;8.504;2024-01-07T01:46:14;4.50;99.90
13436;DHT22;6790;49.520;8.504;2024-01-07T01:48:41;4.50;99.90
13436;DHT22;6790;49.520;8.504;2024-01-07T01:51:07;4.30;99.90
13436;DHT22;6790;49.520;8.504;2024-01-07T01:53:33;4.50;99.90
13436;DHT22;6790;49.520;8.504;2024-01-07T01:56:01;4.40;99.90
13436;DHT22;6790;49.520;8.504;2024-01-07T01:58:29;4.30;99.90
13436;DHT22;6790;49.520;8.504;2024-01-07T02:00:56;4.40;99.90
13436;DHT22;6790;49.520;8.504;2024-01-07T02:03:22;4.30;99.90
13436;DHT22;6790;49.520;8.504;2024-01-07T02:05:48;4.30;99.90
13436;DHT22;6790;49.520;8.504;2024-01-07T02:08:17;4.30;99.90
13436;DHT22;6790;49.520;8.504;2024-01-07T02:10:43;4.30;99.90
13436;DHT22;6790;49.520;8.504;2024-01-07T02:13:08;4.30;99.90
13436;DHT22;6790;49.520;8.504;2024-01-07T02:15:35;4.30;99.90
13436;DHT22;6790;49.520;8.504;2024-01-07T02:18:01;4.40;99.90
13436;DHT22;6790;49.520;8.504;2024-01-07T02:20:27;4.30;99.90
13436;DHT22;6790;49.520;8.504;2024-01-07T02:22:52;4.30;99.90
13436;DHT22;6790;49.520;8.504;2024-01-07T02:25:19;4.40;99.90
13436;DHT22;6790;49.520;8.504;2024-01-07T02:27:44;4.40;99.90
13436;DHT22;6790;49.520;8.504;2024-01-07T02:30:10;4.30;99.90
13436;DHT22;6790;49.520;8.504;2024-01-07T02:32:36;4.40;99.90
13436;DHT22;6790;49.520;8.504;2024-01-07T02:35:03;4.30;99.90
13436;DHT22;6790;49.520;8.504;2024-01-07T02:37:29;4.30;99.90
13436;DHT22;6790;49.520;8.504;2024-01-07T02:39:56;4.40;99.90
13436;DHT22;6790;49.520;8.504;2024-01-07T02:42:21;4.40;99.90
13436;DHT22;6790;49.520;8.504;2024-01-07T02:44:47;4.50;99.90
13436;DHT22;6790;49.520;8.504;2024-01-07T02:47:13;4.30;99.90
13436;DHT22;6790;49.520;8.504;2024-01-07T02:49:38;4.40;99.90
13436;DHT22;6790;49.520;8.504;2024-01-07T02:52:04;4.40;99.90
13436;DHT22;6790;49.520;8.504;2024-01-07T02:54:30;4.50;99.90
13436;DHT22;6790;49.520;8.504;2024-01-07T02:56:56;4.50;99.90
13436;DHT22;6790;49.520;8.504;2024-01-07T02:59:21;4.50;99.90
13436;DHT22;6790;49.520;8.504;2024-01-07T03:01:47;4.40;99.90
13436;DHT22;6790;49.520;8.504;2024-01-07T03:04:14;4.40;99.90
13436;DHT22;6790;49.520;8.504;2024-01-07T03:06:41;4.40;99.90
13436;DHT22;6790;49.520;8.504;2024-01-07T03:09:07;4.50;99.90
13436;DHT22;6790;49.520;8.504;2024-01-07T03:11:33;4.40;99.90
13436;DHT22;6790;49.520;8.504;2024-01-07T03:13:59;4.50;99.90
13436;DHT22;6790;49.520;8.504;2024-01-07T03:16:25;4.40;99.90
13436;DHT22;6790;49.520;8.504;2024-01-07T03:18:51;4.40;99.90
13436;DHT22;6790;49.520;8.504;2024-01-07T03:21:22;4.40;99.90
13436;DHT22;6790;49.520;8.504;2024-01-07T03:23:49;4.40;99.90
13436;DHT22;6790;49.520;8.504;2024-01-07T03:26:17;4.30;99.90
13436;DHT22;6790;49.520;8.504;2024-01-07T03:28:43;4.40;99.90
13436;DHT22;6790;49.520;8.504;2024-01-07T03:31:12;4.50;99.90
13436;DHT22;6790;49.520;8.504;2024-01-07T03:33:39;4.40;99.90
13436;DHT22;6790;49.520;8.504;2024-01-07T03:36:09;4.30;99.90
13436;DHT22;6790;49.520;8.504;2024-01-07T03:38:36;4.50;99.90
13436;DHT22;6790;49.520;8.504;2024-01-07T03:41:03;4.50;99.90
13436;DHT22;6790;49.520;8.504;2024-01-07T03:43:29;4.30;99.90
13436;DHT22;6790;49.520;8.504;2024-01-07T03:45:54;4.40;99.90
13436;DHT22;6790;49.520;8.504;2024-01-07T03:48:20;4.40;99.90
13436;DHT22;6790;49.520;8.504;2024-01-07T03:50:46;4.40;99.90
13436;DHT22;6790;49.520;8.504;2024-01-07T03:53:12;4.40;99.90
13436;DHT22;6790;49.520;8.504;2024-01-07T03:55:38;4.30;99.90
13436;DHT22;6790;49.520;8.504;2024-01-07T03:58:05;4.40;99.90
13436;DHT22;6790;49.520;8.504;2024-01-07T04:00:33;4.40;99.90
13436;DHT22;6790;49.520;8.504;2024-01-07T04:03:00;4.30;99.90
13436;DHT22;6790;49.520;8.504;2024-01-07T04:05:26;4.30;99.90
13436;DHT22;6790;49.520;8.504;2024-01-07T04:07:51;4.30;99.90
13436;DHT22;6790;49.520;8.504;2024-01-07T04:10:17;4.30;99.90
13436;DHT22;6790;49.520;8.504;2024-01-07T04:12:43;4.30;99.90
13436;DHT22;6790;49.520;8.504;2024-01-07T04:15:10;4.30;99.90
13436;DHT22;6790;49.520;8.504;2024-01-07T04:17:36;4.40;99.90
13436;DHT22;6790;49.520;8.504;2024-01-07T04:20:03;4.30;99.90
13436;DHT22;6790;49.520;8.504;2024-01-07T04:22:29;4.30;99.90
13436;DHT22;6790;49.520;8.504;2024-01-07T04:24:54;4.30;99.90
13436;DHT22;6790;49.520;8.504;2024-01-07T04:27:20;4.30;99.90
13436;DHT22;6790;49.520;8.504;2024-01-07T04:29:46;4.30;99.90
13436;DHT22;6790;49.520;8.504;2024-01-07T04:32:12;4.30;99.90
13436;DHT22;6790;49.520;8.504;2024-01-07T04:34:37;4.40;99.90
13436;DHT22;6790;49.520;8.504;2024-01-07T04:37:03;4.30;99.90
13436;DHT22;6790;49.520;8.504;2024-01-07T04:39:29;4.30;99.90
13436;DHT22;6790;49.520;8.504;2024-01-07T04:41:54;4.40;99.90
13436;DHT22;6790;49.520;8.504;2024-01-07T04:44:20;4.40;99.90
13436;DHT22;6790;49.520;8.504;2024-01-07T04:46:47;4.40;99.90
13436;DHT22;6790;49.520;8.504;2024-01-07T04:49:14;4.30;99.90
13436;DHT22;6790;49.520;8.504;2024-01-07T04:51:40;4.40;99.90
13436;DHT22;6790;49.520;8.504;2024-01-07T04:54:05;4.30;99.90
13436;DHT22;6790;49.520;8.504;2024-01-07T04:56:32;4.30;99.90
13436;DHT22;6790;49.520;8.504;2024-01-07T04:58:58;4.30;99.90
13436;DHT22;6790;49.520;8.504;2024-01-07T05:01:24;4.30;99.90
13436;DHT22;6790;49.520;8.504;2024-01-07T05:03:49;4.30;99.90
13436;DHT22;6790;49.520;8.504;2024-01-07T05:06:15;4.30;99.90
13436;DHT22;6790;49.520;8.504;2024-01-07T05:08:41;4.30;99.90
13436;DHT22;6790;49.520;8.504;2024-01-07T05:11:07;4.30;99.90
13436;DHT22;6790;49.520;8.504;2024-01-07T05:13:35;4.30;99.90
13436;DHT22;6790;49.520;8.504;2024-01-07T05:16:00;4.40;99.90
13436;DHT22;6790;49.520;8.504;2024-01-07T05:18:26;4.30;99.90
13436;DHT22;6790;49.520;8.504;2024-01-07T05:20:52;4.30;99.90
13436;DHT22;6790;49.520;8.504;2024-01-07T05:23:18;4.30;99.90
13436;DHT22;6790;49.520;8.504;2024-01-07T05:25:44;4.30;99.90
13436;DHT22;6790;49.520;8.504;2024-01-07T05:28:11;4.30;99.90
13436;DHT22;6790;49.520;8.504;2024-01-07T05:30:37;4.30;99.90
13436;DHT22;6790;49.520;8.504;2024-01-07T05:33:03;4.30;99.90
13436;DHT22;6790;49.520;8.504;2024-01-07T05:35:30;4.30;99.90
13436;DHT22;6790;49.520;8.504;2024-01-07T05:37:56;4.30;99.90
13436;DHT22;6790;49.520;8.504;2024-01-07T05:40:22;4.30;99.90
13436;DHT22;6790;49.520;8.504;2024-01-07T05:42:48;4.30;99.90
13436;DHT22;6790;49.520;8.504;2024-01-07T05:45:13;4.30;99.90
13436;DHT22;6790;49.520;8.504;2024-01-07T05:47:39;4.40;99.90
13436;DHT22;6790;49.520;8.504;2024-01-07T05:50:06;4.30;99.90
13436;DHT22;6790;49.520;8.504;2024-01-07T05:52:33;4.30;99.90
13436;DHT22;6790;49.520;8.504;2024-01-07T05:54:58;4.30;99.90
13436;DHT22;6790;49.520;8.504;2024-01-07T05:57:24;4.40;99.90
13436;DHT22;6790;49.520;8.504;2024-01-07T05:59:50;4.30;99.90
13436;DHT22;6790;49.520;8.504;2024-01-07T06:02:17;4.40;99.90
13436;DHT22;6790;49.520;8.504;2024-01-07T06:04:43;4.40;99.90
13436;DHT22;6790;49.520;8.504;2024-01-07T06:07:08;4.30;99.90
13436;DHT22;6790;49.520;8.504;2024-01-07T06:09:34;4.40;99.90
13436;DHT22;6790;49.520;8.504;2024-01-07T06:12:00;4.30;99.90
13436;DHT22;6790;49.520;8.504;2024-01-07T06:14:26;4.40;99.90
13436;DHT22;6790;49.520;8.504;2024-01-07T06:16:52;4.30;99.90
13436;DHT22;6790;49.520;8.504;2024-01-07T06:19:18;4.30;99.90
13436;DHT22;6790;49.520;8.504;2024-01-07T06:21:44;4.30;99.90
13436;DHT22;6790;49.520;8.504;2024-01-07T06:24:10;4.30;99.90
13436;DHT22;6790;49.520;8.504;2024-01-07T06:26:36;4.30;99.90
13436;DHT22;6790;49.520;8.504;2024-01-07T06:29:02;4.30;99.90
13436;DHT22;6790;49.520;8.504;2024-01-07T06:31:28;4.40;99.90
13436;DHT22;6790;49.520;8.504;2024-01-07T06:33:53;4.30;99.90
13436;DHT22;6790;49.520;8.504;2024-01-07T06:36:23;4.40;99.90
13436;DHT22;6790;49.520;8.504;2024-01-07T06:38:49;4.30;99.90
13436;DHT22;6790;49.520;8.504;2024-01-07T06:41:15;4.40;99.90
13436;DHT22;6790;49.520;8.504;2024-01-07T06:43:41;4.40;99.90
13436;DHT22;6790;49.520;8.504;2024-01-07T06:46:06;4.40;99.90
13436;DHT22;6790;49.520;8.504;2024-01-07T06:48:32;4.40;99.90
13436;DHT22;6790;49.520;8.504;2024-01-07T06:50:58;4.30;99.90
13436;DHT22;6790;49.520;8.504;2024-01-07T06:53:24;4.40;99.90
13436;DHT22;6790;49.520;8.504;2024-01-07T06:55:49;4.40;99.90
13436;DHT22;6790;49.520;8.504;2024-01-07T06:58:15;4.40;99.90
13436;DHT22;6790;49.520;8.504;2024-01-07T07:00:41;4.30;99.90
13436;DHT22;6790;49.520;8.504;2024-01-07T07:03:08;4.40;99.90
13436;DHT22;6790;49.520;8.504;2024-01-07T07:05:34;4.40;99.90
13436;DHT22;6790;49.520;8.504;2024-01-07T07:08:01;4.30;99.90
13436;DHT22;6790;49.520;8.504;2024-01-07T07:10:27;4.40;99.90
13436;DHT22;6790;49.520;8.504;2024-01-07T07:12:53;4.40;99.90
13436;DHT22;6790;49.520;8.504;2024-01-07T07:15:19;4.50;99.90
13436;DHT22;6790;49.520;8.504;2024-01-07T07:17:45;4.50;99.90
13436;DHT22;6790;49.520;8.504;2024-01-07T07:20:11;4.40;99.90
13436;DHT22;6790;49.520;8.504;2024-01-07T07:22:37;4.50;99.90
13436;DHT22;6790;49.520;8.504;2024-01-07T07:25:03;4.40;99.90
13436;DHT22;6790;49.520;8.504;2024-01-07T07:27:28;4.40;99.90
13436;DHT22;6790;49.520;8.504;2024-01-07T07:29:54;4.40;99.90
13436;DHT22;6790;49.520;8.504;2024-01-07T07:32:20;4.40;99.90
13436;DHT22;6790;49.520;8.504;2024-01-07T07:34:46;4.40;99.90
13436;DHT22;6790;49.520;8.504;2024-01-07T07:37:13;4.50;99.90
13436;DHT22;6790;49.520;8.504;2024-01-07T07:39:39;4.40;99.90
13436;DHT22;6790;49.520;8.504;2024-01-07T07:42:04;4.50;99.90
13436;DHT22;6790;49.520;8.504;2024-01-07T07:44:30;4.40;99.90
13436;DHT22;6790;49.520;8.504;2024-01-07T07:46:56;4.40;99.90
13436;DHT22;6790;49.520;8.504;2024-01-07T07:49:21;4.50;99.90
13436;DHT22;6790;49.520;8.504;2024-01-07T07:51:47;4.50;99.90
13436;DHT22;6790;49.520;8.504;2024-01-07T07:54:13;4.40;99.90
13436;DHT22;6790;49.520;8.504;2024-01-07T07:56:38;4.40;99.90
13436;DHT22;6790;49.520;8.504;2024-01-07T07:59:04;4.50;99.90
13436;DHT22;6790;49.520;8.504;2024-01-07T08:01:30;4.40;99.90
13436;DHT22;6790;49.520;8.504;2024-01-07T08:03:56;4.40;99.90
13436;DHT22;6790;49.520;8.504;2024-01-07T08:06:21;4.40;99.90
13436;DHT22;6790;49.520;8.504;2024-01-07T08:08:47;4.40;99.90
13436;DHT22;6790;49.520;8.504;2024-01-07T08:11:13;4.50;99.90
13436;DHT22;6790;49.520;8.504;2024-01-07T08:13:38;4.40;99.90
13436;DHT22;6790;49.520;8.504;2024-01-07T08:16:05;4.50;99.90
13436;DHT22;6790;49.520;8.504;2024-01-07T08:18:31;4.40;99.90
13436;DHT22;6790;49.520;8.504;2024-01-07T08:20:57;4.40;99.90
13436;DHT22;6790;49.520;8.504;2024-01-07T08:23:24;4.40;99.90
13436;DHT22;6790;49.520;8.504;2024-01-07T08:25:50;4.50;99.90
13436;DHT22;6790;49.520;8.504;2024-01-07T08:28:18;4.40;99.90
13436;DHT22;6790;49.520;8.504;2024-01-07T08:30:46;4.40;99.90
13436;DHT22;6790;49.520;8.504;2024-01-07T08:33:12;4.40;99.90
13436;DHT22;6790;49.520;8.504;2024-01-07T08:35:37;4.40;99.90
13436;DHT22;6790;49.520;8.504;2024-01-07T08:38:03;4.40;99.90
13436;DHT22;6790;49.520;8.504;2024-01-07T08:40:30;4.40;99.90
13436;DHT22;6790;49.520;8.504;2024-01-07T08:42:56;4.40;99.90
13436;DHT22;6790;49.520;8.504;2024-01-07T08:45:22;4.40;99.90
13436;DHT22;6790;49.520;8.504;2024-01-07T08:47:48;4.30;99.90
13436;DHT22;6790;49.520;8.504;2024-01-07T08:50:14;4.30;99.90
13436;DHT22;6790;49.520;8.504;2024-01-07T08:52:39;4.30;99.90
13436;DHT22;6790;49.520;8.504;2024-01-07T08:55:06;4.30;99.90
13436;DHT22;6790;49.520;8.504;2024-01-07T08:57:35;4.30;99.90
13436;DHT22;6790;49.520;8.504;2024-01-07T09:00:00;4.30;99.90
13436;DHT22;6790;49.520;8.504;2024-01-07T09:02:26;4.30;99.90
13436;DHT22;6790;49.520;8.504;2024-01-07T09:04:52;4.30;99.90
13436;DHT22;6790;49.520;8.504;2024-01-07T09:07:18;4.30;99.90
13436;DHT22;6790;49.520;8.504;2024-01-07T09:09:44;4.20;99.90
13436;DHT22;6790;49.520;8.504;2024-01-07T09:12:10;4.20;99.90
13436;DHT22;6790;49.520;8.504;2024-01-07T09:14:37;4.30;99.90
13436;DHT22;6790;49.520;8.504;2024-01-07T09:17:04;4.30;99.90
13436;DHT22;6790;49.520;8.504;2024-01-07T09:19:29;4.30;99.90
13436;DHT22;6790;49.520;8.504;2024-01-07T09:21:55;4.30;99.90
13436;DHT22;6790;49.520;8.504;2024-01-07T09:24:21;4.30;99.90
13436;DHT22;6790;49.520;8.504;2024-01-07T09:26:46;4.30;99.90
13436;DHT22;6790;49.520;8.504;2024-01-07T09:29:12;4.40;99.90
13436;DHT22;6790;49.520;8.504;2024-01-07T09:31:39;4.30;99.90
13436;DHT22;6790;49.520;8.504;2024-01-07T09:34:05;4.40;99.90
13436;DHT22;6790;49.520;8.504;2024-01-07T09:36:32;4.40;99.90
13436;DHT22;6790;49.520;8.504;2024-01-07T09:38:58;4.50;99.90
13436;DHT22;6790;49.520;8.504;2024-01-07T09:41:24;4.50;99.90
13436;DHT22;6790;49.520;8.504;2024-01-07T09:43:51;4.60;99.90
13436;DHT22;6790;49.520;8.504;2024-01-07T09:46:20;4.50;99.90
13436;DHT22;6790;49.520;8.504;2024-01-07T09:48:46;4.60;99.90
13436;DHT22;6790;49.520;8.504;2024-01-07T09:51:12;4.60;99.90
13436;DHT22;6790;49.520;8.504;2024-01-07T09:53:39;4.70;99.90
13436;DHT22;6790;49.520;8.504;2024-01-07T09:56:19;4.60;99.90
13436;DHT22;6790;49.520;8.504;2024-01-07T09:58:46;4.70;99.90
13436;DHT22;6790;49.520;8.504;2024-01-07T10:01:18;4.80;99.90
13436;DHT22;6790;49.520;8.504;2024-01-07T10:03:44;4.80;99.90
13436;DHT22;6790;49.520;8.504;2024-01-07T10:06:13;4.80;99.90
13436;DHT22;6790;49.520;8.504;2024-01-07T10:08:39;4.80;99.90
13436;DHT22;6790;49.520;8.504;2024-01-07T10:11:04;4.80;99.90
13436;DHT22;6790;49.520;8.504;2024-01-07T10:13:31;4.80;99.90
13436;DHT22;6790;49.520;8.504;2024-01-07T10:15:57;4.70;99.90
13436;DHT22;6790;49.520;8.504;2024-01-07T10:18:24;4.70;99.90
13436;DHT22;6790;49.520;8.504;2024-01-07T10:20:50;4.70;99.90
13436;DHT22;6790;49.520;8.504;2024-01-07T10:23:19;4.80;99.90
13436;DHT22;6790;49.520;8.504;2024-01-07T10:25:45;4.80;99.90
13436;DHT22;6790;49.520;8.504;2024-01-07T10:28:11;4.70;99.90
13436;DHT22;6790;49.520;8.504;2024-01-07T10:30:40;4.60;99.90
13436;DHT22;6790;49.520;8.504;2024-01-07T10:33:07;4.70;99.90
13436;DHT22;6790;49.520;8.504;2024-01-07T10:35:34;4.70;99.90
13436;DHT22;6790;49.520;8.504;2024-01-07T10:38:01;4.90;99.90
13436;DHT22;6790;49.520;8.504;2024-01-07T10:40:29;4.90;99.90
13436;DHT22;6790;49.520;8.504;2024-01-07T10:42:56;5.00;99.90
13436;DHT22;6790;49.520;8.504;2024-01-07T10:45:22;5.10;99.90
13436;DHT22;6790;49.520;8.504;2024-01-07T10:47:49;5.20;99.90
13436;DHT22;6790;49.520;8.504;2024-01-07T10:50:20;5.10;99.90
13436;DHT22;6790;49.520;8.504;2024-01-07T10:52:50;5.20;99.90
13436;DHT22;6790;49.520;8.504;2024-01-07T10:55:35;5.20;99.90
13436;DHT22;6790;49.520;8.504;2024-01-07T10:58:03;5.00;99.90
13436;DHT22;6790;49.520;8.504;2024-01-07T11:00:30;5.00;99.90
13436;DHT22;6790;49.520;8.504;2024-01-07T11:09:06;4.60;99.90
13436;DHT22;6790;49.520;8.504;2024-01-07T11:11:40;4.70;99.90
13436;DHT22;6790;49.520;8.504;2024-01-07T11:14:34;4.80;99.90
13436;DHT22;6790;49.520;8.504;2024-01-07T11:17:05;4.70;99.90
13436;DHT22;6790;49.520;8.504;2024-01-07T11:19:32;4.70;99.90
13436;DHT22;6790;49.520;8.504;2024-01-07T11:22:29;4.70;99.90
13436;DHT22;6790;49.520;8.504;2024-01-07T11:24:59;4.60;99.90
13436;DHT22;6790;49.520;8.504;2024-01-07T11:27:30;4.60;99.90
13436;DHT22;6790;49.520;8.504;2024-01-07T11:30:05;4.50;99.90
13436;DHT22;6790;49.520;8.504;2024-01-07T11:32:34;4.50;99.90
13436;DHT22;6790;49.520;8.504;2024-01-07T11:35:01;4.60;99.90
13436;DHT22;6790;49.520;8.504;2024-01-07T11:37:28;4.70;99.90
13436;DHT22;6790;49.520;8.504;2024-01-07T11:39:57;4.60;99.90
13436;DHT22;6790;49.520;8.504;2024-01-07T11:42:23;4.50;99.90
13436;DHT22;6790;49.520;8.504;2024-01-07T11:44:55;4.60;99.90
13436;DHT22;6790;49.520;8.504;2024-01-07T11:47:22;4.60;99.90
13436;DHT22;6790;49.520;8.504;2024-01-07T11:49:48;4.50;99.90
13436;DHT22;6790;49.520;8.504;2024-01-07T11:52:19;4.60;99.90
13436;DHT22;6790;49.520;8.504;2024-01-07T11:54:45;4.50;99.90
13436;DHT22;6790;49.520;8.504;2024-01-07T11:57:13;4.40;99.90
13436;DHT22;6790;49.520;8.504;2024-01-07T11:59:39;4.40;99.90
13436;DHT22;6790;49.520;8.504;2024-01-07T12:02:05;4.40;99.90
13436;DHT22;6790;49.520;8.504;2024-01-07T12:04:31;4.40;99.90
13436;DHT22;6790;49.520;8.504;2024-01-07T12:06:57;4.30;99.90
13436;DHT22;6790;49.520;8.504;2024-01-07T12:09:24;4.20;99.90
13436;DHT22;6790;49.520;8.504;2024-01-07T12:11:51;4.20;99.90
13436;DHT22;6790;49.520;8.504;2024-01-07T12:14:17;4.10;99.90
13436;DHT22;6790;49.520;8.504;2024-01-07T12:16:43;4.00;99.90
13436;DHT22;6790;49.520;8.504;2024-01-07T12:19:09;3.90;99.90
13436;DHT22;6790;49.520;8.504;2024-01-07T12:21:36;3.90;99.90
13436;DHT22;6790;49.520;8.504;2024-01-07T12:24:03;3.80;99.90
13436;DHT22;6790;49.520;8.504;2024-01-07T12:26:30;3.90;99.90
13436;DHT22;6790;49.520;8.504;2024-01-07T12:28:59;3.80;99.90
13436;DHT22;6790;49.520;8.504;2024-01-07T12:31:29;3.80;99.90
13436;DHT22;6790;49.520;8.504;2024-01-07T12:33:56;3.90;99.90
13436;DHT22;6790;49.520;8.504;2024-01-07T12:36:23;3.90;99.90
13436;DHT22;6790;49.520;8.504;2024-01-07T12:38:49;3.90;99.90
13436;DHT22;6790;49.520;8.504;2024-01-07T12:41:17;3.80;99.90
13436;DHT22;6790;49.520;8.504;2024-01-07T12:43:43;3.70;99.90
13436;DHT22;6790;49.520;8.504;2024-01-07T12:46:08;3.80;99.90
13436;DHT22;6790;49.520;8.504;2024-01-07T12:48:34;3.80;99.90
13436;DHT22;6790;49.520;8.504;2024-01-07T12:51:04;3.80;99.90
13436;DHT22;6790;49.520;8.504;2024-01-07T12:53:35;3.70;99.90
13436;DHT22;6790;49.520;8.504;2024-01-07T12:56:01;3.70;99.90
13436;DHT22;6790;49.520;8.504;2024-01-07T12:58:27;3.80;99.90
13436;DHT22;6790;49.520;8.504;2024-01-07T13:00:52;3.70;99.90
13436;DHT22;6790;49.520;8.504;2024-01-07T13:03:18;3.60;99.90
13436;DHT22;6790;49.520;8.504;2024-01-07T13:05:45;3.50;99.90
13436;DHT22;6790;49.520;8.504;2024-01-07T13:08:12;3.50;99.90
13436;DHT22;6790;49.520;8.504;2024-01-07T13:10:38;3.50;99.90
13436;DHT22;6790;49.520;8.504;2024-01-07T13:13:04;3.40;99.90
13436;DHT22;6790;49.520;8.504;2024-01-07T13:15:30;3.40;99.90
13436;DHT22;6790;49.520;8.504;2024-01-07T13:17:57;3.40;99.90
13436;DHT22;6790;49.520;8.504;2024-01-07T13:20:22;3.40;99.90
13436;DHT22;6790;49.520;8.504;2024-01-07T13:22:49;3.30;99.90
13436;DHT22;6790;49.520;8.504;2024-01-07T13:25:15;3.30;99.90
13436;DHT22;6790;49.520;8.504;2024-01-07T13:27:41;3.20;99.90
13436;DHT22;6790;49.520;8.504;2024-01-07T13:30:08;3.20;99.90
13436;DHT22;6790;49.520;8.504;2024-01-07T13:32:35;3.10;99.90
13436;DHT22;6790;49.520;8.504;2024-01-07T13:35:02;3.20;99.90
13436;DHT22;6790;49.520;8.504;2024-01-07T13:37:29;3.10;99.90
13436;DHT22;6790;49.520;8.504;2024-01-07T13:39:56;3.10;99.90
13436;DHT22;6790;49.520;8.504;2024-01-07T13:42:22;3.00;99.90
13436;DHT22;6790;49.520;8.504;2024-01-07T13:44:47;3.00;99.90
13436;DHT22;6790;49.520;8.504;2024-01-07T13:47:13;3.00;99.90
13436;DHT22;6790;49.520;8.504;2024-01-07T13:49:40;3.00;99.90
13436;DHT22;6790;49.520;8.504;2024-01-07T13:52:06;3.00;99.90
13436;DHT22;6790;49.520;8.504;2024-01-07T13:54:32;2.90;99.90
13436;DHT22;6790;49.520;8.504;2024-01-07T13:56:57;2.90;99.90
13436;DHT22;6790;49.520;8.504;2024-01-07T13:59:24;2.90;99.90
13436;DHT22;6790;49.520;8.504;2024-01-07T14:01:49;2.90;99.90
13436;DHT22;6790;49.520;8.504;2024-01-07T14:04:15;2.90;99.90
13436;DHT22;6790;49.520;8.504;2024-01-07T14:06:41;3.00;99.90
13436;DHT22;6790;49.520;8.504;2024-01-07T14:09:06;2.90;99.90
13436;DHT22;6790;49.520;8.504;2024-01-07T14:11:34;2.90;99.90
13436;DHT22;6790;49.520;8.504;2024-01-07T14:14:00;2.90;99.90
13436;DHT22;6790;49.520;8.504;2024-01-07T14:16:27;2.90;99.90
13436;DHT22;6790;49.520;8.504;2024-01-07T14:18:53;2.90;99.90
13436;DHT22;6790;49.520;8.504;2024-01-07T14:21:19;2.90;99.90
13436;DHT22;6790;49.520;8.504;2024-01-07T14:23:45;2.90;99.90
13436;DHT22;6790;49.520;8.504;2024-01-07T14:26:11;2.80;99.90
13436;DHT22;6790;49.520;8.504;2024-01-07T14:28:36;2.80;99.90
13436;DHT22;6790;49.520;8.504;2024-01-07T14:31:02;2.80;99.90
13436;DHT22;6790;49.520;8.504;2024-01-07T14:33:28;2.80;99.90
13436;DHT22;6790;49.520;8.504;2024-01-07T14:35:54;2.80;99.90
13436;DHT22;6790;49.520;8.504;2024-01-07T14:38:20;2.70;99.90
13436;DHT22;6790;49.520;8.504;2024-01-07T14:40:46;2.70;99.90
13436;DHT22;6790;49.520;8.504;2024-01-07T14:43:12;2.70;99.90
13436;DHT22;6790;49.520;8.504;2024-01-07T14:45:38;2.60;99.90
13436;DHT22;6790;49.520;8.504;2024-01-07T14:48:04;2.60;99.90
13436;DHT22;6790;49.520;8.504;2024-01-07T14:50:30;2.60;99.90
13436;DHT22;6790;49.520;8.504;2024-01-07T14:52:56;2.60;99.90
13436;DHT22;6790;49.520;8.504;2024-01-07T14:55:21;2.60;99.90
13436;DHT22;6790;49.520;8.504;2024-01-07T14:57:47;2.50;99.90
13436;DHT22;6790;49.520;8.504;2024-01-07T15:00:13;2.50;99.90
13436;DHT22;6790;49.520;8.504;2024-01-07T15:02:39;2.50;99.90
13436;DHT22;6790;49.520;8.504;2024-01-07T15:05:05;2.50;99.90
13436;DHT22;6790;49.520;8.504;2024-01-07T15:07:31;2.40;99.90
13436;DHT22;6790;49.520;8.504;2024-01-07T15:09:57;2.40;99.90
13436;DHT22;6790;49.520;8.504;2024-01-07T15:12:25;2.30;99.90
13436;DHT22;6790;49.520;8.504;2024-01-07T15:14:50;2.30;99.90
13436;DHT22;6790;49.520;8.504;2024-01-07T15:17:16;2.20;99.90
13436;DHT22;6790;49.520;8.504;2024-01-07T15:19:44;2.20;99.90
13436;DHT22;6790;49.520;8.504;2024-01-07T15:22:11;2.10;99.90
13436;DHT22;6790;49.520;8.504;2024-01-07T15:24:38;2.10;99.90
13436;DHT22;6790;49.520;8.504;2024-01-07T15:27:04;2.00;99.90
13436;DHT22;6790;49.520;8.504;2024-01-07T15:29:30;1.90;99.90
13436;DHT22;6790;49.520;8.504;2024-01-07T15:31:55;1.90;99.90
13436;DHT22;6790;49.520;8.504;2024-01-07T15:34:21;1.80;99.90
13436;DHT22;6790;49.520;8.504;2024-01-07T15:36:47;1.80;99.90
13436;DHT22;6790;49.520;8.504;2024-01-07T15:39:13;1.70;99.90
13436;DHT22;6790;49.520;8.504;2024-01-07T15:41:38;1.70;99.90
13436;DHT22;6790;49.520;8.504;2024-01-07T15:44:04;1.70;99.90
13436;DHT22;6790;49.520;8.504;2024-01-07T15:46:30;1.60;99.90
13436;DHT22;6790;49.520;8.504;2024-01-07T15:48:55;1.60;99.90
13436;DHT22;6790;49.520;8.504;2024-01-07T15:51:21;1.60;99.90
13436;DHT22;6790;49.520;8.504;2024-01-07T15:53:47;1.50;99.90
13436;DHT22;6790;49.520;8.504;2024-01-07T15:56:13;1.50;99.90
13436;DHT22;6790;49.520;8.504;2024-01-07T15:58:40;1.50;99.90
13436;DHT22;6790;49.520;8.504;2024-01-07T16:01:07;1.50;99.90
13436;DHT22;6790;49.520;8.504;2024-01-07T16:03:33;1.40;99.90